Estación Meteorológica Peña el Pijo (Robertgarden) [ 09/24/17 17:43:26 CEST ]

Fecha Hora Presion(HPa) Temp (°C) Humedad % Rocio (°C) Viento ( m/s) Direccion Lluvia 1Hora(mm) Lluvia 24H(mm) LLuvia Total(mm)
2017-Aug-23 01:01:32 1013.200 18.5 64 11.5         1439.00
2017-Aug-23 02:01:46 1013.300 18.7 63 11.5         1439.00
2017-Aug-23 03:01:31 1012.900 17.6 65 11.0         1439.00
2017-Aug-23 04:01:29 1012.800 16.6 68 10.7         1439.00
2017-Aug-23 05:01:25 1012.600 15.9 70 10.5         1439.00
2017-Aug-23 06:01:30 1012.400 15.2 73 10.4         1439.00
2017-Aug-23 07:01:34 1012.200 14.9 75 10.5         1439.00
2017-Aug-23 08:01:34 1012.400 14.9 74 10.3         1439.00
2017-Aug-23 09:01:36 1012.200 19.6 68 13.5         1439.00
2017-Aug-23 10:01:32 1012.500 27.1 49 15.4         1439.00
2017-Aug-23 11:01:25 1012.900 31.7 37 15.1         1439.00
2017-Aug-23 12:01:35 1013.100 34.0 28 12.8         1439.00
2017-Aug-23 13:01:40 1012.800 35.3 26 12.7         1439.00
2017-Aug-23 14:01:48 1012.500 34.7 26 12.2 0.6 WNW     1439.00
2017-Aug-23 15:01:50 1011.900 35.3 23 10.8 1.5 N     1439.00
2017-Aug-23 16:01:56 1011.600 35.9 21 10.1 1.7 W     1439.00
2017-Aug-23 17:01:43 1011.400 34.5 21 8.9         1439.00
2017-Aug-23 18:01:41 1011.500 33.6 21 8.2 3.4 SSE     1439.00
2017-Aug-23 19:01:38 1011.600 31.8 24 8.5 1.9 WSW     1439.00
2017-Aug-23 20:01:39 1011.800 28.6 26 7.0         1439.00
2017-Aug-23 21:01:46 1011.900 25.9 29 6.4         1439.00
2017-Aug-23 22:01:59 1012.700 22.6 36 6.7         1439.00
2017-Aug-23 23:01:53 1013.200 19.8 43 6.8         1439.00

Temperatura Máxima:35°    Temperatura Mínima:14°
Presión Máxima:1013.300 Hpa    Presión Mínima:1011.400 Hpa


Volver